sensor_id;sensor_type;location;lat;lon;timestamp;pressure;altitude;pressure_sealevel;temperature;humidity
9672;BME280;4874;43.568;27.824;2023-04-08T00:01:41;99372.47;;;8.46;100.00
9672;BME280;4874;43.568;27.824;2023-04-08T00:04:08;99375.84;;;8.48;100.00
9672;BME280;4874;43.568;27.824;2023-04-08T00:06:35;99383.16;;;8.45;100.00
9672;BME280;4874;43.568;27.824;2023-04-08T00:09:02;99381.34;;;8.34;100.00
9672;BME280;4874;43.568;27.824;2023-04-08T00:11:29;99386.59;;;8.23;100.00
9672;BME280;4874;43.568;27.824;2023-04-08T00:13:56;99387.22;;;8.15;100.00
9672;BME280;4874;43.568;27.824;2023-04-08T00:16:22;99390.78;;;8.14;100.00
9672;BME280;4874;43.568;27.824;2023-04-08T00:18:49;99387.81;;;8.19;100.00
9672;BME280;4874;43.568;27.824;2023-04-08T00:21:16;99393.69;;;8.11;100.00
9672;BME280;4874;43.568;27.824;2023-04-08T00:23:46;99387.78;;;7.97;100.00
9672;BME280;4874;43.568;27.824;2023-04-08T00:26:12;99395.16;;;8.15;100.00
9672;BME280;4874;43.568;27.824;2023-04-08T00:28:39;99385.16;;;8.08;100.00
9672;BME280;4874;43.568;27.824;2023-04-08T00:31:06;99385.50;;;8.14;100.00
9672;BME280;4874;43.568;27.824;2023-04-08T00:33:33;99380.81;;;8.18;100.00
9672;BME280;4874;43.568;27.824;2023-04-08T00:36:00;99391.16;;;8.21;100.00
9672;BME280;4874;43.568;27.824;2023-04-08T00:38:26;99380.94;;;8.16;100.00
9672;BME280;4874;43.568;27.824;2023-04-08T00:40:53;99386.41;;;8.26;100.00
9672;BME280;4874;43.568;27.824;2023-04-08T00:43:20;99393.72;;;8.22;100.00
9672;BME280;4874;43.568;27.824;2023-04-08T00:45:47;99342.25;;;7.93;100.00
9672;BME280;4874;43.568;27.824;2023-04-08T00:48:13;99231.97;;;7.16;100.00
9672;BME280;4874;43.568;27.824;2023-04-08T00:50:42;99374.81;;;8.05;100.00
9672;BME280;4874;43.568;27.824;2023-04-08T00:53:09;99379.03;;;8.18;100.00
9672;BME280;4874;43.568;27.824;2023-04-08T00:55:36;99388.81;;;7.83;100.00
9672;BME280;4874;43.568;27.824;2023-04-08T00:58:03;99387.81;;;7.62;100.00
9672;BME280;4874;43.568;27.824;2023-04-08T01:00:30;99392.31;;;7.73;100.00
9672;BME280;4874;43.568;27.824;2023-04-08T01:03:00;99389.66;;;7.73;100.00
9672;BME280;4874;43.568;27.824;2023-04-08T01:05:35;99391.00;;;7.89;100.00
9672;BME280;4874;43.568;27.824;2023-04-08T01:08:07;99395.66;;;7.75;100.00
9672;BME280;4874;43.568;27.824;2023-04-08T01:10:37;99389.41;;;7.76;100.00
9672;BME280;4874;43.568;27.824;2023-04-08T01:13:07;99386.28;;;7.71;100.00
9672;BME280;4874;43.568;27.824;2023-04-08T01:15:36;99386.41;;;7.69;100.00
9672;BME280;4874;43.568;27.824;2023-04-08T01:18:06;99385.06;;;7.75;100.00
9672;BME280;4874;43.568;27.824;2023-04-08T01:20:34;99385.59;;;7.80;100.00
9672;BME280;4874;43.568;27.824;2023-04-08T01:25:50;99360.63;;;7.49;100.00
9672;BME280;4874;43.568;27.824;2023-04-08T01:28:20;99375.03;;;7.80;100.00
9672;BME280;4874;43.568;27.824;2023-04-08T01:30:48;99377.19;;;7.86;100.00
9672;BME280;4874;43.568;27.824;2023-04-08T01:33:17;99379.28;;;7.70;100.00
9672;BME280;4874;43.568;27.824;2023-04-08T01:35:45;99363.94;;;7.75;100.00
9672;BME280;4874;43.568;27.824;2023-04-08T01:38:13;99383.16;;;7.66;100.00
9672;BME280;4874;43.568;27.824;2023-04-08T01:40:41;99324.38;;;7.16;100.00
9672;BME280;4874;43.568;27.824;2023-04-08T01:43:09;99378.44;;;7.58;100.00
9672;BME280;4874;43.568;27.824;2023-04-08T01:45:38;99364.50;;;7.22;100.00
9672;BME280;4874;43.568;27.824;2023-04-08T01:48:06;99343.38;;;6.98;100.00
9672;BME280;4874;43.568;27.824;2023-04-08T01:50:33;99356.81;;;7.53;100.00
9672;BME280;4874;43.568;27.824;2023-04-08T01:53:01;99373.31;;;7.68;100.00
9672;BME280;4874;43.568;27.824;2023-04-08T01:55:31;99337.13;;;7.23;100.00
9672;BME280;4874;43.568;27.824;2023-04-08T01:57:59;99370.91;;;7.30;100.00
9672;BME280;4874;43.568;27.824;2023-04-08T02:00:29;99369.28;;;7.51;100.00
9672;BME280;4874;43.568;27.824;2023-04-08T02:02:57;99370.38;;;7.49;100.00
9672;BME280;4874;43.568;27.824;2023-04-08T02:05:25;99370.13;;;7.52;100.00
9672;BME280;4874;43.568;27.824;2023-04-08T02:07:52;99363.06;;;7.52;100.00
9672;BME280;4874;43.568;27.824;2023-04-08T02:10:18;99368.25;;;7.65;100.00
9672;BME280;4874;43.568;27.824;2023-04-08T02:12:46;99366.75;;;7.50;100.00
9672;BME280;4874;43.568;27.824;2023-04-08T02:15:13;99371.84;;;7.29;100.00
9672;BME280;4874;43.568;27.824;2023-04-08T02:17:44;99330.06;;;6.99;100.00
9672;BME280;4874;43.568;27.824;2023-04-08T02:20:39;99374.53;;;7.40;100.00
9672;BME280;4874;43.568;27.824;2023-04-08T02:23:14;99377.94;;;7.53;100.00
9672;BME280;4874;43.568;27.824;2023-04-08T02:25:44;99363.06;;;7.29;100.00
9672;BME280;4874;43.568;27.824;2023-04-08T02:28:11;99372.22;;;7.36;100.00
9672;BME280;4874;43.568;27.824;2023-04-08T02:30:46;99364.41;;;7.34;100.00
9672;BME280;4874;43.568;27.824;2023-04-08T02:33:14;99318.00;;;7.08;100.00
9672;BME280;4874;43.568;27.824;2023-04-08T02:35:43;99367.06;;;7.34;100.00
9672;BME280;4874;43.568;27.824;2023-04-08T02:38:10;99365.22;;;7.24;100.00
9672;BME280;4874;43.568;27.824;2023-04-08T02:40:37;99362.03;;;7.42;100.00
9672;BME280;4874;43.568;27.824;2023-04-08T02:43:04;99367.44;;;7.06;100.00
9672;BME280;4874;43.568;27.824;2023-04-08T02:45:33;99372.75;;;7.17;100.00
9672;BME280;4874;43.568;27.824;2023-04-08T02:48:01;99304.94;;;6.59;100.00
9672;BME280;4874;43.568;27.824;2023-04-08T02:50:28;99372.13;;;6.90;100.00
9672;BME280;4874;43.568;27.824;2023-04-08T02:52:54;99364.72;;;6.95;100.00
9672;BME280;4874;43.568;27.824;2023-04-08T02:55:21;99366.69;;;7.04;100.00
9672;BME280;4874;43.568;27.824;2023-04-08T02:57:49;99367.91;;;6.87;100.00
9672;BME280;4874;43.568;27.824;2023-04-08T03:00:16;99377.03;;;6.47;100.00
9672;BME280;4874;43.568;27.824;2023-04-08T03:02:43;99381.69;;;6.80;100.00
9672;BME280;4874;43.568;27.824;2023-04-08T03:05:10;99364.19;;;6.30;100.00
9672;BME280;4874;43.568;27.824;2023-04-08T03:07:37;99383.78;;;6.51;100.00
9672;BME280;4874;43.568;27.824;2023-04-08T03:10:04;99381.38;;;6.36;100.00
9672;BME280;4874;43.568;27.824;2023-04-08T03:12:31;99388.59;;;6.45;100.00
9672;BME280;4874;43.568;27.824;2023-04-08T03:14:58;99390.84;;;6.38;100.00
9672;BME280;4874;43.568;27.824;2023-04-08T03:17:26;99404.25;;;6.35;100.00
9672;BME280;4874;43.568;27.824;2023-04-08T03:19:53;99392.25;;;6.67;100.00
9672;BME280;4874;43.568;27.824;2023-04-08T03:22:19;99400.50;;;6.63;100.00
9672;BME280;4874;43.568;27.824;2023-04-08T03:24:46;99401.78;;;6.45;100.00
9672;BME280;4874;43.568;27.824;2023-04-08T03:27:13;99405.28;;;6.33;100.00
9672;BME280;4874;43.568;27.824;2023-04-08T03:29:40;99328.06;;;5.94;100.00
9672;BME280;4874;43.568;27.824;2023-04-08T03:32:06;99400.47;;;6.27;100.00
9672;BME280;4874;43.568;27.824;2023-04-08T03:34:34;99395.25;;;6.50;100.00
9672;BME280;4874;43.568;27.824;2023-04-08T03:37:01;99399.91;;;6.34;100.00
9672;BME280;4874;43.568;27.824;2023-04-08T03:39:27;99403.09;;;6.39;100.00
9672;BME280;4874;43.568;27.824;2023-04-08T03:41:54;99406.88;;;6.35;100.00
9672;BME280;4874;43.568;27.824;2023-04-08T03:44:21;99410.03;;;6.40;100.00
9672;BME280;4874;43.568;27.824;2023-04-08T03:46:47;99412.78;;;6.26;100.00
9672;BME280;4874;43.568;27.824;2023-04-08T03:49:14;99418.94;;;6.02;100.00
9672;BME280;4874;43.568;27.824;2023-04-08T03:51:41;99414.19;;;6.07;100.00
9672;BME280;4874;43.568;27.824;2023-04-08T03:54:07;99421.78;;;6.24;100.00
9672;BME280;4874;43.568;27.824;2023-04-08T03:56:34;99389.50;;;5.95;100.00
9672;BME280;4874;43.568;27.824;2023-04-08T03:59:01;99425.03;;;6.15;100.00
9672;BME280;4874;43.568;27.824;2023-04-08T04:01:27;99438.75;;;6.20;100.00
9672;BME280;4874;43.568;27.824;2023-04-08T04:03:56;99433.13;;;6.37;100.00
9672;BME280;4874;43.568;27.824;2023-04-08T04:06:22;99426.94;;;6.25;100.00
9672;BME280;4874;43.568;27.824;2023-04-08T04:08:49;99437.13;;;6.17;100.00
9672;BME280;4874;43.568;27.824;2023-04-08T04:11:18;99413.31;;;5.93;100.00
9672;BME280;4874;43.568;27.824;2023-04-08T04:13:45;99439.06;;;6.15;100.00
9672;BME280;4874;43.568;27.824;2023-04-08T04:16:11;99437.78;;;6.33;100.00
9672;BME280;4874;43.568;27.824;2023-04-08T04:18:38;99448.13;;;6.11;100.00
9672;BME280;4874;43.568;27.824;2023-04-08T04:21:05;99436.19;;;6.06;100.00
9672;BME280;4874;43.568;27.824;2023-04-08T04:23:33;99450.56;;;6.02;100.00
9672;BME280;4874;43.568;27.824;2023-04-08T04:25:59;99444.13;;;6.18;100.00
9672;BME280;4874;43.568;27.824;2023-04-08T04:28:26;99443.47;;;6.65;100.00
9672;BME280;4874;43.568;27.824;2023-04-08T04:30:53;99440.31;;;6.35;100.00
9672;BME280;4874;43.568;27.824;2023-04-08T04:33:21;99438.84;;;6.31;100.00
9672;BME280;4874;43.568;27.824;2023-04-08T04:35:48;99446.31;;;6.24;100.00
9672;BME280;4874;43.568;27.824;2023-04-08T04:38:15;99446.72;;;6.56;100.00
9672;BME280;4874;43.568;27.824;2023-04-08T04:40:41;99415.31;;;6.28;100.00
9672;BME280;4874;43.568;27.824;2023-04-08T04:43:09;99446.66;;;6.32;100.00
9672;BME280;4874;43.568;27.824;2023-04-08T04:45:36;99446.84;;;6.54;100.00
9672;BME280;4874;43.568;27.824;2023-04-08T04:48:03;99449.25;;;6.57;100.00
9672;BME280;4874;43.568;27.824;2023-04-08T04:50:29;99447.34;;;6.72;100.00
9672;BME280;4874;43.568;27.824;2023-04-08T04:52:56;99454.28;;;6.85;100.00
9672;BME280;4874;43.568;27.824;2023-04-08T04:55:23;99437.59;;;6.85;100.00
9672;BME280;4874;43.568;27.824;2023-04-08T04:57:50;99456.72;;;7.12;100.00
9672;BME280;4874;43.568;27.824;2023-04-08T05:00:16;99449.47;;;7.03;100.00
9672;BME280;4874;43.568;27.824;2023-04-08T05:02:43;99466.50;;;6.86;100.00
9672;BME280;4874;43.568;27.824;2023-04-08T05:05:10;99470.38;;;7.06;100.00
9672;BME280;4874;43.568;27.824;2023-04-08T05:07:37;99470.13;;;7.22;100.00
9672;BME280;4874;43.568;27.824;2023-04-08T05:10:04;99452.53;;;7.09;100.00
9672;BME280;4874;43.568;27.824;2023-04-08T05:12:31;99436.06;;;7.06;100.00
9672;BME280;4874;43.568;27.824;2023-04-08T05:14:58;99460.19;;;7.49;100.00
9672;BME280;4874;43.568;27.824;2023-04-08T05:17:25;99426.97;;;7.57;100.00
9672;BME280;4874;43.568;27.824;2023-04-08T05:19:52;99464.72;;;8.05;100.00
9672;BME280;4874;43.568;27.824;2023-04-08T05:22:19;99447.56;;;7.76;100.00
9672;BME280;4874;43.568;27.824;2023-04-08T05:24:45;99465.94;;;8.12;100.00
9672;BME280;4874;43.568;27.824;2023-04-08T05:27:12;99470.19;;;8.25;100.00
9672;BME280;4874;43.568;27.824;2023-04-08T05:29:39;99464.81;;;8.49;100.00
9672;BME280;4874;43.568;27.824;2023-04-08T05:32:05;99469.13;;;8.39;100.00
9672;BME280;4874;43.568;27.824;2023-04-08T05:34:32;99459.19;;;7.73;100.00
9672;BME280;4874;43.568;27.824;2023-04-08T05:36:59;99460.50;;;7.21;100.00
9672;BME280;4874;43.568;27.824;2023-04-08T05:39:26;99457.59;;;7.12;100.00
9672;BME280;4874;43.568;27.824;2023-04-08T05:41:52;99445.66;;;7.78;100.00
9672;BME280;4874;43.568;27.824;2023-04-08T05:44:19;99467.91;;;8.32;100.00
9672;BME280;4874;43.568;27.824;2023-04-08T05:46:46;99466.69;;;7.90;100.00
9672;BME280;4874;43.568;27.824;2023-04-08T05:49:12;99460.03;;;7.74;100.00
9672;BME280;4874;43.568;27.824;2023-04-08T05:51:39;99469.25;;;7.68;100.00
9672;BME280;4874;43.568;27.824;2023-04-08T05:54:06;99462.72;;;7.85;100.00
9672;BME280;4874;43.568;27.824;2023-04-08T05:56:33;99466.81;;;7.89;100.00
9672;BME280;4874;43.568;27.824;2023-04-08T05:59:00;99463.25;;;8.01;100.00
9672;BME280;4874;43.568;27.824;2023-04-08T06:01:27;99430.03;;;7.86;100.00
9672;BME280;4874;43.568;27.824;2023-04-08T06:03:53;99464.53;;;8.30;100.00
9672;BME280;4874;43.568;27.824;2023-04-08T06:06:22;99465.66;;;8.50;100.00
9672;BME280;4874;43.568;27.824;2023-04-08T06:08:48;99467.91;;;9.09;100.00
9672;BME280;4874;43.568;27.824;2023-04-08T06:11:15;99420.28;;;8.76;100.00
9672;BME280;4874;43.568;27.824;2023-04-08T06:13:42;99460.44;;;9.03;100.00
9672;BME280;4874;43.568;27.824;2023-04-08T06:16:15;99460.00;;;8.65;100.00
9672;BME280;4874;43.568;27.824;2023-04-08T06:18:46;99468.56;;;8.69;100.00
9672;BME280;4874;43.568;27.824;2023-04-08T06:21:13;99468.31;;;8.72;100.00
9672;BME280;4874;43.568;27.824;2023-04-08T06:23:40;99467.69;;;8.57;100.00
9672;BME280;4874;43.568;27.824;2023-04-08T06:26:06;99475.88;;;8.87;100.00
9672;BME280;4874;43.568;27.824;2023-04-08T06:28:33;99466.06;;;9.64;100.00
9672;BME280;4874;43.568;27.824;2023-04-08T06:31:00;99443.16;;;9.42;100.00
9672;BME280;4874;43.568;27.824;2023-04-08T06:33:26;99462.97;;;9.16;100.00
9672;BME280;4874;43.568;27.824;2023-04-08T06:36:04;99467.94;;;9.41;100.00
9672;BME280;4874;43.568;27.824;2023-04-08T06:38:31;99433.97;;;9.14;100.00
9672;BME280;4874;43.568;27.824;2023-04-08T06:41:02;99464.66;;;9.06;100.00
9672;BME280;4874;43.568;27.824;2023-04-08T06:43:29;99468.50;;;9.67;100.00
9672;BME280;4874;43.568;27.824;2023-04-08T06:45:56;99452.50;;;9.89;100.00
9672;BME280;4874;43.568;27.824;2023-04-08T06:48:24;99460.78;;;9.95;100.00
9672;BME280;4874;43.568;27.824;2023-04-08T06:50:56;99442.66;;;10.72;100.00
9672;BME280;4874;43.568;27.824;2023-04-08T06:53:24;99454.28;;;11.20;100.00
9672;BME280;4874;43.568;27.824;2023-04-08T06:55:51;99449.75;;;10.11;100.00
9672;BME280;4874;43.568;27.824;2023-04-08T06:58:18;99437.81;;;10.46;100.00
9672;BME280;4874;43.568;27.824;2023-04-08T07:00:44;99446.16;;;10.01;100.00
9672;BME280;4874;43.568;27.824;2023-04-08T07:03:11;99455.91;;;10.62;100.00
9672;BME280;4874;43.568;27.824;2023-04-08T07:05:38;99415.72;;;10.76;100.00
9672;BME280;4874;43.568;27.824;2023-04-08T07:08:05;99456.22;;;11.67;100.00
9672;BME280;4874;43.568;27.824;2023-04-08T07:10:33;99462.22;;;12.17;100.00
9672;BME280;4874;43.568;27.824;2023-04-08T07:13:00;99444.25;;;12.28;100.00
9672;BME280;4874;43.568;27.824;2023-04-08T07:15:27;99463.47;;;11.06;100.00
9672;BME280;4874;43.568;27.824;2023-04-08T07:17:54;99459.41;;;10.62;100.00
9672;BME280;4874;43.568;27.824;2023-04-08T07:20:23;99454.47;;;10.58;100.00
9672;BME280;4874;43.568;27.824;2023-04-08T07:22:49;99454.78;;;11.53;100.00
9672;BME280;4874;43.568;27.824;2023-04-08T07:25:16;99459.53;;;11.01;100.00
9672;BME280;4874;43.568;27.824;2023-04-08T07:27:43;99422.44;;;11.29;100.00
9672;BME280;4874;43.568;27.824;2023-04-08T07:30:10;99464.13;;;11.38;100.00
9672;BME280;4874;43.568;27.824;2023-04-08T07:32:37;99446.59;;;11.26;100.00
9672;BME280;4874;43.568;27.824;2023-04-08T07:35:04;99453.31;;;11.21;100.00
9672;BME280;4874;43.568;27.824;2023-04-08T07:37:31;99438.13;;;11.61;100.00
9672;BME280;4874;43.568;27.824;2023-04-08T07:39:57;99452.81;;;11.36;100.00
9672;BME280;4874;43.568;27.824;2023-04-08T07:42:24;99443.84;;;11.37;100.00
9672;BME280;4874;43.568;27.824;2023-04-08T07:44:51;99452.69;;;11.57;100.00
9672;BME280;4874;43.568;27.824;2023-04-08T07:47:18;99461.66;;;11.84;100.00
9672;BME280;4874;43.568;27.824;2023-04-08T07:49:45;99459.84;;;11.66;100.00
9672;BME280;4874;43.568;27.824;2023-04-08T07:52:12;99441.38;;;10.96;100.00
9672;BME280;4874;43.568;27.824;2023-04-08T07:54:39;99468.91;;;11.44;100.00
9672;BME280;4874;43.568;27.824;2023-04-08T07:57:05;99444.97;;;11.54;100.00
9672;BME280;4874;43.568;27.824;2023-04-08T07:59:32;99465.31;;;12.68;100.00
9672;BME280;4874;43.568;27.824;2023-04-08T08:01:59;99465.81;;;12.81;100.00
9672;BME280;4874;43.568;27.824;2023-04-08T08:04:25;99463.50;;;13.05;100.00
9672;BME280;4874;43.568;27.824;2023-04-08T08:06:52;99458.19;;;13.05;100.00
9672;BME280;4874;43.568;27.824;2023-04-08T08:09:19;99466.38;;;12.84;100.00
9672;BME280;4874;43.568;27.824;2023-04-08T08:11:46;99469.56;;;12.61;100.00
9672;BME280;4874;43.568;27.824;2023-04-08T08:14:13;99464.22;;;12.61;100.00
9672;BME280;4874;43.568;27.824;2023-04-08T08:16:39;99450.56;;;13.10;99.60
9672;BME280;4874;43.568;27.824;2023-04-08T08:19:07;99432.53;;;13.22;97.10
9672;BME280;4874;43.568;27.824;2023-04-08T08:21:37;99463.97;;;12.91;97.57
9672;BME280;4874;43.568;27.824;2023-04-08T08:24:05;99467.63;;;12.90;99.35
9672;BME280;4874;43.568;27.824;2023-04-08T08:26:35;99459.47;;;13.28;99.23
9672;BME280;4874;43.568;27.824;2023-04-08T08:29:05;99455.91;;;13.55;98.15
9672;BME280;4874;43.568;27.824;2023-04-08T08:31:34;99455.00;;;13.64;96.13
9672;BME280;4874;43.568;27.824;2023-04-08T08:34:01;99452.72;;;13.51;93.79
9672;BME280;4874;43.568;27.824;2023-04-08T08:36:28;99465.47;;;12.66;95.96
9672;BME280;4874;43.568;27.824;2023-04-08T08:38:54;99439.41;;;13.24;96.06
9672;BME280;4874;43.568;27.824;2023-04-08T08:41:21;99458.34;;;13.48;91.68
9672;BME280;4874;43.568;27.824;2023-04-08T08:43:48;99434.34;;;13.48;93.42
9672;BME280;4874;43.568;27.824;2023-04-08T08:46:16;99458.34;;;12.94;98.26
9672;BME280;4874;43.568;27.824;2023-04-08T08:48:45;99394.84;;;12.16;100.00
9672;BME280;4874;43.568;27.824;2023-04-08T08:51:13;99462.00;;;13.47;99.39
9672;BME280;4874;43.568;27.824;2023-04-08T08:53:40;99448.16;;;13.96;97.99
9672;BME280;4874;43.568;27.824;2023-04-08T08:56:11;99455.47;;;14.12;94.73
9672;BME280;4874;43.568;27.824;2023-04-08T08:58:43;99468.09;;;13.40;96.76
9672;BME280;4874;43.568;27.824;2023-04-08T09:01:32;99463.59;;;13.58;98.32
9672;BME280;4874;43.568;27.824;2023-04-08T09:04:11;99463.53;;;12.95;100.00
9672;BME280;4874;43.568;27.824;2023-04-08T09:06:38;99469.09;;;12.75;100.00
9672;BME280;4874;43.568;27.824;2023-04-08T09:09:05;99470.00;;;13.47;100.00
9672;BME280;4874;43.568;27.824;2023-04-08T09:11:40;99474.41;;;13.39;100.00
9672;BME280;4874;43.568;27.824;2023-04-08T09:14:23;99470.41;;;13.70;100.00
9672;BME280;4874;43.568;27.824;2023-04-08T09:16:51;99477.00;;;12.94;100.00
9672;BME280;4874;43.568;27.824;2023-04-08T09:19:18;99478.59;;;12.41;100.00
9672;BME280;4874;43.568;27.824;2023-04-08T09:21:45;99472.47;;;11.93;100.00
9672;BME280;4874;43.568;27.824;2023-04-08T09:24:29;99492.38;;;12.63;100.00
9672;BME280;4874;43.568;27.824;2023-04-08T09:26:56;99447.50;;;12.13;100.00
9672;BME280;4874;43.568;27.824;2023-04-08T09:29:24;99482.97;;;12.13;100.00
9672;BME280;4874;43.568;27.824;2023-04-08T09:31:58;99482.22;;;12.21;100.00
9672;BME280;4874;43.568;27.824;2023-04-08T09:34:26;99492.13;;;12.57;100.00
9672;BME280;4874;43.568;27.824;2023-04-08T09:36:54;99477.22;;;13.37;100.00
9672;BME280;4874;43.568;27.824;2023-04-08T09:39:21;99486.56;;;13.68;100.00
9672;BME280;4874;43.568;27.824;2023-04-08T09:41:49;99460.44;;;13.89;99.20
9672;BME280;4874;43.568;27.824;2023-04-08T09:44:18;99492.25;;;12.55;100.00
9672;BME280;4874;43.568;27.824;2023-04-08T09:46:55;99491.44;;;12.91;100.00
9672;BME280;4874;43.568;27.824;2023-04-08T09:52:11;99435.38;;;13.20;100.00
9672;BME280;4874;43.568;27.824;2023-04-08T09:55:03;99485.31;;;13.18;100.00
9672;BME280;4874;43.568;27.824;2023-04-08T10:00:16;99479.31;;;13.16;100.00
9672;BME280;4874;43.568;27.824;2023-04-08T10:05:40;99485.53;;;12.51;100.00
9672;BME280;4874;43.568;27.824;2023-04-08T10:08:08;99463.13;;;12.54;100.00
9672;BME280;4874;43.568;27.824;2023-04-08T10:10:37;99482.56;;;13.37;100.00
9672;BME280;4874;43.568;27.824;2023-04-08T10:13:06;99477.72;;;12.86;100.00
9672;BME280;4874;43.568;27.824;2023-04-08T10:15:34;99484.94;;;12.67;100.00
9672;BME280;4874;43.568;27.824;2023-04-08T10:23:06;99488.63;;;12.93;100.00
9672;BME280;4874;43.568;27.824;2023-04-08T10:25:37;99480.59;;;13.12;100.00
9672;BME280;4874;43.568;27.824;2023-04-08T10:30:53;99477.34;;;12.72;100.00
9672;BME280;4874;43.568;27.824;2023-04-08T10:33:31;99469.16;;;13.02;100.00
9672;BME280;4874;43.568;27.824;2023-04-08T10:36:08;99459.63;;;13.44;100.00
9672;BME280;4874;43.568;27.824;2023-04-08T10:38:39;99455.88;;;14.43;100.00
9672;BME280;4874;43.568;27.824;2023-04-08T10:41:10;99461.69;;;13.68;100.00
9672;BME280;4874;43.568;27.824;2023-04-08T10:43:47;99434.44;;;14.35;99.77
9672;BME280;4874;43.568;27.824;2023-04-08T10:46:13;99455.50;;;14.63;100.00
9672;BME280;4874;43.568;27.824;2023-04-08T10:48:40;99221.50;;;13.77;97.50
9672;BME280;4874;43.568;27.824;2023-04-08T10:51:07;99456.56;;;14.70;98.90
9672;BME280;4874;43.568;27.824;2023-04-08T10:53:35;99459.00;;;13.95;100.00
9672;BME280;4874;43.568;27.824;2023-04-08T10:56:13;99454.72;;;13.67;100.00
9672;BME280;4874;43.568;27.824;2023-04-08T10:58:54;99460.84;;;14.89;100.00
9672;BME280;4874;43.568;27.824;2023-04-08T11:01:22;99458.41;;;14.78;99.62
9672;BME280;4874;43.568;27.824;2023-04-08T11:03:49;99454.13;;;14.85;98.12
9672;BME280;4874;43.568;27.824;2023-04-08T11:06:16;99422.25;;;14.91;96.87
9672;BME280;4874;43.568;27.824;2023-04-08T11:08:44;99460.13;;;13.92;99.33
9672;BME280;4874;43.568;27.824;2023-04-08T11:11:11;99449.13;;;14.56;100.00
9672;BME280;4874;43.568;27.824;2023-04-08T11:13:41;99453.59;;;14.12;99.50
9672;BME280;4874;43.568;27.824;2023-04-08T11:16:20;99449.94;;;15.66;94.48
9672;BME280;4874;43.568;27.824;2023-04-08T11:18:47;99409.28;;;15.54;89.87
9672;BME280;4874;43.568;27.824;2023-04-08T11:21:15;99452.25;;;15.69;89.60
9672;BME280;4874;43.568;27.824;2023-04-08T11:23:42;99443.00;;;15.39;89.35
9672;BME280;4874;43.568;27.824;2023-04-08T11:26:09;99454.41;;;14.74;92.43
9672;BME280;4874;43.568;27.824;2023-04-08T11:28:37;99455.81;;;14.35;100.00
9672;BME280;4874;43.568;27.824;2023-04-08T11:31:04;99436.50;;;14.66;94.64
9672;BME280;4874;43.568;27.824;2023-04-08T11:33:31;99445.25;;;15.60;89.39
9672;BME280;4874;43.568;27.824;2023-04-08T11:36:00;99428.13;;;14.36;96.83
9672;BME280;4874;43.568;27.824;2023-04-08T11:38:27;99429.41;;;14.32;94.70
9672;BME280;4874;43.568;27.824;2023-04-08T11:40:56;99427.78;;;13.95;97.56
9672;BME280;4874;43.568;27.824;2023-04-08T11:43:26;99428.94;;;13.75;99.05
9672;BME280;4874;43.568;27.824;2023-04-08T11:45:54;99415.00;;;13.64;100.00
9672;BME280;4874;43.568;27.824;2023-04-08T11:48:20;99432.28;;;13.60;100.00
9672;BME280;4874;43.568;27.824;2023-04-08T11:50:47;99409.78;;;13.27;100.00
9672;BME280;4874;43.568;27.824;2023-04-08T11:53:20;99420.97;;;14.01;100.00
9672;BME280;4874;43.568;27.824;2023-04-08T11:55:47;99412.72;;;13.86;100.00
9672;BME280;4874;43.568;27.824;2023-04-08T11:58:14;99422.03;;;13.03;100.00
9672;BME280;4874;43.568;27.824;2023-04-08T12:00:41;99421.41;;;13.53;100.00
9672;BME280;4874;43.568;27.824;2023-04-08T12:03:10;99392.84;;;14.06;100.00
9672;BME280;4874;43.568;27.824;2023-04-08T12:05:38;99414.81;;;14.44;100.00
9672;BME280;4874;43.568;27.824;2023-04-08T12:08:05;99421.75;;;13.23;100.00
9672;BME280;4874;43.568;27.824;2023-04-08T12:10:32;99423.91;;;13.55;100.00
9672;BME280;4874;43.568;27.824;2023-04-08T12:12:58;99414.53;;;13.86;100.00
9672;BME280;4874;43.568;27.824;2023-04-08T12:15:25;99418.63;;;13.98;100.00
9672;BME280;4874;43.568;27.824;2023-04-08T12:17:51;99416.75;;;14.34;98.52
9672;BME280;4874;43.568;27.824;2023-04-08T12:20:18;99415.13;;;14.23;98.56
9672;BME280;4874;43.568;27.824;2023-04-08T12:22:45;99405.31;;;14.24;98.08
9672;BME280;4874;43.568;27.824;2023-04-08T12:25:12;99406.91;;;13.73;99.87
9672;BME280;4874;43.568;27.824;2023-04-08T12:27:38;99408.97;;;14.23;98.85
9672;BME280;4874;43.568;27.824;2023-04-08T12:30:06;99413.44;;;13.26;100.00
9672;BME280;4874;43.568;27.824;2023-04-08T12:32:33;99404.03;;;12.41;100.00
9672;BME280;4874;43.568;27.824;2023-04-08T12:35:00;99417.59;;;12.47;100.00
9672;BME280;4874;43.568;27.824;2023-04-08T12:37:26;99415.09;;;12.46;100.00
9672;BME280;4874;43.568;27.824;2023-04-08T12:39:53;99392.75;;;13.55;100.00
9672;BME280;4874;43.568;27.824;2023-04-08T12:42:20;99402.94;;;13.77;100.00
9672;BME280;4874;43.568;27.824;2023-04-08T12:44:47;99403.63;;;13.44;100.00
9672;BME280;4874;43.568;27.824;2023-04-08T12:47:13;99406.09;;;13.11;100.00
9672;BME280;4874;43.568;27.824;2023-04-08T12:49:40;99407.72;;;13.39;100.00
9672;BME280;4874;43.568;27.824;2023-04-08T12:52:14;99395.00;;;13.15;100.00
9672;BME280;4874;43.568;27.824;2023-04-08T12:54:41;99394.03;;;13.86;100.00
9672;BME280;4874;43.568;27.824;2023-04-08T12:57:08;99369.56;;;13.21;100.00
9672;BME280;4874;43.568;27.824;2023-04-08T12:59:34;99389.19;;;13.02;100.00
9672;BME280;4874;43.568;27.824;2023-04-08T13:02:01;99369.25;;;13.24;100.00
9672;BME280;4874;43.568;27.824;2023-04-08T13:04:28;99389.91;;;13.57;100.00
9672;BME280;4874;43.568;27.824;2023-04-08T13:06:55;99378.56;;;13.72;99.08
9672;BME280;4874;43.568;27.824;2023-04-08T13:09:22;99381.53;;;13.69;98.21
9672;BME280;4874;43.568;27.824;2023-04-08T13:11:49;99383.88;;;13.90;98.20
9672;BME280;4874;43.568;27.824;2023-04-08T13:14:16;99378.56;;;13.37;100.00
9672;BME280;4874;43.568;27.824;2023-04-08T13:16:42;99368.69;;;13.90;98.49
9672;BME280;4874;43.568;27.824;2023-04-08T13:19:09;99360.03;;;12.64;100.00
9672;BME280;4874;43.568;27.824;2023-04-08T13:21:36;99353.28;;;12.69;100.00
9672;BME280;4874;43.568;27.824;2023-04-08T13:24:02;99365.63;;;12.70;100.00
9672;BME280;4874;43.568;27.824;2023-04-08T13:26:29;99380.22;;;12.93;98.96
9672;BME280;4874;43.568;27.824;2023-04-08T13:28:56;99381.34;;;12.91;98.49
9672;BME280;4874;43.568;27.824;2023-04-08T13:31:24;99383.13;;;13.00;97.60